sensor_id;sensor_type;location;lat;lon;timestamp;pressure;altitude;pressure_sealevel;temperature;humidity
58471;BME280;44258;51.288;12.068;2023-02-02T00:01:19;100280.19;;;2.98;69.35
58471;BME280;44258;51.288;12.068;2023-02-02T00:03:47;100278.75;;;3.17;68.52
58471;BME280;44258;51.288;12.068;2023-02-02T00:06:16;100280.75;;;3.09;68.24
58471;BME280;44258;51.288;12.068;2023-02-02T00:08:44;100280.22;;;3.29;67.22
58471;BME280;44258;51.288;12.068;2023-02-02T00:11:11;100276.75;;;3.27;67.29
58471;BME280;44258;51.288;12.068;2023-02-02T00:13:37;100281.06;;;3.31;67.08
58471;BME280;44258;51.288;12.068;2023-02-02T00:16:35;100283.72;;;3.31;67.11
58471;BME280;44258;51.288;12.068;2023-02-02T00:19:04;100279.06;;;3.06;67.36
58471;BME280;44258;51.288;12.068;2023-02-02T00:21:32;100298.88;;;3.27;66.72
58471;BME280;44258;51.288;12.068;2023-02-02T00:23:59;100294.19;;;3.37;66.20
58471;BME280;44258;51.288;12.068;2023-02-02T00:26:26;100300.41;;;3.36;66.09
58471;BME280;44258;51.288;12.068;2023-02-02T00:28:52;100294.97;;;3.41;65.78
58471;BME280;44258;51.288;12.068;2023-02-02T00:31:19;100289.22;;;3.23;65.89
58471;BME280;44258;51.288;12.068;2023-02-02T00:33:47;100291.97;;;3.20;66.40
58471;BME280;44258;51.288;12.068;2023-02-02T00:36:14;100300.69;;;3.25;66.06
58471;BME280;44258;51.288;12.068;2023-02-02T00:38:42;100297.13;;;3.26;65.93
58471;BME280;44258;51.288;12.068;2023-02-02T00:41:09;100298.00;;;3.27;66.02
58471;BME280;44258;51.288;12.068;2023-02-02T00:43:35;100295.41;;;3.24;66.05
58471;BME280;44258;51.288;12.068;2023-02-02T00:46:02;100298.50;;;3.08;66.35
58471;BME280;44258;51.288;12.068;2023-02-02T00:48:27;100302.72;;;3.16;66.47
58471;BME280;44258;51.288;12.068;2023-02-02T00:50:54;100299.22;;;3.13;66.35
58471;BME280;44258;51.288;12.068;2023-02-02T00:53:22;100295.38;;;2.91;67.06
58471;BME280;44258;51.288;12.068;2023-02-02T00:55:53;100294.91;;;3.09;66.48
58471;BME280;44258;51.288;12.068;2023-02-02T00:58:19;100302.88;;;3.09;66.49
58471;BME280;44258;51.288;12.068;2023-02-02T01:00:45;100292.25;;;3.09;66.63
58471;BME280;44258;51.288;12.068;2023-02-02T01:03:12;100305.47;;;3.12;66.51
58471;BME280;44258;51.288;12.068;2023-02-02T01:05:38;100303.84;;;3.05;66.27
58471;BME280;44258;51.288;12.068;2023-02-02T01:08:05;100300.81;;;2.86;67.38
58471;BME280;44258;51.288;12.068;2023-02-02T01:10:32;100302.16;;;3.03;66.65
58471;BME280;44258;51.288;12.068;2023-02-02T01:13:01;100299.53;;;3.01;66.64
58471;BME280;44258;51.288;12.068;2023-02-02T01:15:27;100305.84;;;2.97;66.59
58471;BME280;44258;51.288;12.068;2023-02-02T01:17:55;100306.75;;;2.98;66.75
58471;BME280;44258;51.288;12.068;2023-02-02T01:20:22;100303.28;;;2.94;67.23
58471;BME280;44258;51.288;12.068;2023-02-02T01:22:50;100304.13;;;2.96;66.83
58471;BME280;44258;51.288;12.068;2023-02-02T01:25:17;100302.00;;;3.09;66.58
58471;BME280;44258;51.288;12.068;2023-02-02T01:27:43;100305.47;;;3.12;66.49
58471;BME280;44258;51.288;12.068;2023-02-02T01:30:12;100305.44;;;3.14;66.55
58471;BME280;44258;51.288;12.068;2023-02-02T01:32:38;100305.09;;;3.26;66.01
58471;BME280;44258;51.288;12.068;2023-02-02T01:35:08;100305.31;;;3.19;66.57
58471;BME280;44258;51.288;12.068;2023-02-02T01:37:35;100298.00;;;3.27;65.96
58471;BME280;44258;51.288;12.068;2023-02-02T01:40:01;100301.56;;;3.26;66.08
58471;BME280;44258;51.288;12.068;2023-02-02T01:42:28;100304.97;;;3.31;65.85
58471;BME280;44258;51.288;12.068;2023-02-02T01:45:20;100310.78;;;3.12;66.17
58471;BME280;44258;51.288;12.068;2023-02-02T01:47:51;100297.50;;;3.12;65.86
58471;BME280;44258;51.288;12.068;2023-02-02T01:50:22;100301.16;;;3.08;65.96
58471;BME280;44258;51.288;12.068;2023-02-02T01:52:52;100303.81;;;3.08;65.88
58471;BME280;44258;51.288;12.068;2023-02-02T01:55:22;100300.28;;;3.08;65.96
58471;BME280;44258;51.288;12.068;2023-02-02T01:57:52;100297.66;;;3.06;65.73
58471;BME280;44258;51.288;12.068;2023-02-02T02:00:22;100296.31;;;2.90;65.86
58471;BME280;44258;51.288;12.068;2023-02-02T02:02:52;100306.16;;;2.85;66.60
58471;BME280;44258;51.288;12.068;2023-02-02T02:05:24;100297.84;;;2.99;65.98
58471;BME280;44258;51.288;12.068;2023-02-02T02:07:53;100298.94;;;2.91;66.17
58471;BME280;44258;51.288;12.068;2023-02-02T02:10:22;100297.25;;;2.87;65.97
58471;BME280;44258;51.288;12.068;2023-02-02T02:12:49;100301.38;;;2.99;65.80
58471;BME280;44258;51.288;12.068;2023-02-02T02:15:17;100300.22;;;2.75;66.49
58471;BME280;44258;51.288;12.068;2023-02-02T02:18:11;100298.19;;;2.85;65.93
58471;BME280;44258;51.288;12.068;2023-02-02T02:21:10;100314.25;;;2.80;66.15
58471;BME280;44258;51.288;12.068;2023-02-02T02:24:22;100300.00;;;2.47;66.79
58471;BME280;44258;51.288;12.068;2023-02-02T02:27:45;100302.41;;;2.58;66.82
58471;BME280;44258;51.288;12.068;2023-02-02T02:33:31;100302.44;;;2.55;66.70
58471;BME280;44258;51.288;12.068;2023-02-02T02:36:04;100306.47;;;2.71;66.23
58471;BME280;44258;51.288;12.068;2023-02-02T02:38:36;100310.91;;;2.72;65.92
58471;BME280;44258;51.288;12.068;2023-02-02T02:41:09;100310.91;;;2.72;66.19
58471;BME280;44258;51.288;12.068;2023-02-02T02:43:41;100310.03;;;2.71;65.96
58471;BME280;44258;51.288;12.068;2023-02-02T02:46:09;100310.97;;;2.69;65.99
58471;BME280;44258;51.288;12.068;2023-02-02T02:48:43;100315.41;;;2.68;65.75
58471;BME280;44258;51.288;12.068;2023-02-02T02:51:39;100316.09;;;2.77;65.70
58471;BME280;44258;51.288;12.068;2023-02-02T02:54:07;100314.13;;;2.85;65.19
58471;BME280;44258;51.288;12.068;2023-02-02T02:56:43;100303.41;;;2.52;66.17
58471;BME280;44258;51.288;12.068;2023-02-02T02:59:21;100313.19;;;2.50;65.76
58471;BME280;44258;51.288;12.068;2023-02-02T03:01:55;100317.41;;;2.59;66.29
58471;BME280;44258;51.288;12.068;2023-02-02T03:04:32;100324.00;;;2.80;65.38
58471;BME280;44258;51.288;12.068;2023-02-02T03:07:08;100317.75;;;2.81;65.22
58471;BME280;44258;51.288;12.068;2023-02-02T03:09:40;100318.00;;;2.71;65.52
58471;BME280;44258;51.288;12.068;2023-02-02T03:12:07;100317.47;;;2.57;65.61
58471;BME280;44258;51.288;12.068;2023-02-02T03:14:34;100323.47;;;2.64;65.46
58471;BME280;44258;51.288;12.068;2023-02-02T03:17:01;100321.25;;;2.83;64.82
58471;BME280;44258;51.288;12.068;2023-02-02T03:19:29;100321.63;;;2.67;65.18
58471;BME280;44258;51.288;12.068;2023-02-02T03:21:56;100323.91;;;2.83;64.80
58471;BME280;44258;51.288;12.068;2023-02-02T03:24:23;100326.66;;;2.80;64.86
58471;BME280;44258;51.288;12.068;2023-02-02T03:26:50;100328.47;;;2.78;65.08
58471;BME280;44258;51.288;12.068;2023-02-02T03:29:17;100332.72;;;2.85;64.79
58471;BME280;44258;51.288;12.068;2023-02-02T03:31:43;100325.84;;;2.76;64.92
58471;BME280;44258;51.288;12.068;2023-02-02T03:34:11;100335.69;;;2.71;65.12
58471;BME280;44258;51.288;12.068;2023-02-02T03:36:38;100334.97;;;2.64;65.17
58471;BME280;44258;51.288;12.068;2023-02-02T03:39:05;100337.56;;;2.67;65.45
58471;BME280;44258;51.288;12.068;2023-02-02T03:41:31;100337.38;;;2.75;65.18
58471;BME280;44258;51.288;12.068;2023-02-02T03:43:58;100345.59;;;2.64;64.93
58471;BME280;44258;51.288;12.068;2023-02-02T03:46:26;100354.00;;;2.83;65.11
58471;BME280;44258;51.288;12.068;2023-02-02T03:48:52;100358.28;;;2.89;64.95
58471;BME280;44258;51.288;12.068;2023-02-02T03:51:19;100360.88;;;2.92;64.95
58471;BME280;44258;51.288;12.068;2023-02-02T03:53:47;100372.88;;;3.08;64.48
58471;BME280;44258;51.288;12.068;2023-02-02T03:56:14;100375.59;;;3.05;64.04
58471;BME280;44258;51.288;12.068;2023-02-02T03:58:41;100375.81;;;2.98;64.53
58471;BME280;44258;51.288;12.068;2023-02-02T04:01:11;100378.53;;;3.30;64.13
58471;BME280;44258;51.288;12.068;2023-02-02T04:03:38;100367.78;;;2.99;64.28
58471;BME280;44258;51.288;12.068;2023-02-02T04:06:04;100370.09;;;3.13;64.48
58471;BME280;44258;51.288;12.068;2023-02-02T04:08:31;100371.19;;;3.04;64.33
58471;BME280;44258;51.288;12.068;2023-02-02T04:10:59;100370.56;;;2.93;64.63
58471;BME280;44258;51.288;12.068;2023-02-02T04:13:26;100377.75;;;3.25;63.91
58471;BME280;44258;51.288;12.068;2023-02-02T04:15:57;100372.47;;;3.24;63.80
58471;BME280;44258;51.288;12.068;2023-02-02T04:18:24;100376.69;;;3.32;63.33
58471;BME280;44258;51.288;12.068;2023-02-02T04:20:55;100386.28;;;3.38;62.96
58471;BME280;44258;51.288;12.068;2023-02-02T04:23:22;100381.81;;;3.04;63.88
58471;BME280;44258;51.288;12.068;2023-02-02T04:25:49;100383.75;;;2.98;64.53
58471;BME280;44258;51.288;12.068;2023-02-02T04:28:17;100382.19;;;3.26;63.16
58471;BME280;44258;51.288;12.068;2023-02-02T04:30:44;100394.97;;;3.10;63.69
58471;BME280;44258;51.288;12.068;2023-02-02T04:33:11;100390.66;;;3.05;63.99
58471;BME280;44258;51.288;12.068;2023-02-02T04:35:37;100398.56;;;3.08;63.59
58471;BME280;44258;51.288;12.068;2023-02-02T04:38:04;100387.66;;;3.19;63.77
58471;BME280;44258;51.288;12.068;2023-02-02T04:40:30;100374.53;;;3.12;63.81
58471;BME280;44258;51.288;12.068;2023-02-02T04:42:56;100381.72;;;3.09;64.49
58471;BME280;44258;51.288;12.068;2023-02-02T04:45:24;100384.03;;;3.23;63.77
58471;BME280;44258;51.288;12.068;2023-02-02T04:47:51;100387.38;;;3.31;63.42
58471;BME280;44258;51.288;12.068;2023-02-02T04:50:17;100390.59;;;3.08;63.70
58471;BME280;44258;51.288;12.068;2023-02-02T04:52:44;100408.97;;;3.17;64.38
58471;BME280;44258;51.288;12.068;2023-02-02T04:55:11;100405.09;;;3.30;63.87
58471;BME280;44258;51.288;12.068;2023-02-02T04:57:37;100407.31;;;3.11;64.42
58471;BME280;44258;51.288;12.068;2023-02-02T05:00:05;100419.28;;;3.29;63.67
58471;BME280;44258;51.288;12.068;2023-02-02T05:02:35;100420.13;;;3.31;63.87
58471;BME280;44258;51.288;12.068;2023-02-02T05:05:02;100440.03;;;3.13;64.56
58471;BME280;44258;51.288;12.068;2023-02-02T05:07:29;100430.91;;;2.88;65.01
58471;BME280;44258;51.288;12.068;2023-02-02T05:09:56;100425.91;;;3.11;64.24
58471;BME280;44258;51.288;12.068;2023-02-02T05:12:22;100427.72;;;3.09;64.47
58471;BME280;44258;51.288;12.068;2023-02-02T05:14:49;100433.22;;;3.39;63.23
58471;BME280;44258;51.288;12.068;2023-02-02T05:17:15;100426.50;;;3.24;63.82
58471;BME280;44258;51.288;12.068;2023-02-02T05:19:43;100441.69;;;3.19;64.02
58471;BME280;44258;51.288;12.068;2023-02-02T05:22:09;100435.34;;;3.25;63.90
58471;BME280;44258;51.288;12.068;2023-02-02T05:24:36;100441.63;;;3.22;64.48
58471;BME280;44258;51.288;12.068;2023-02-02T05:27:02;100445.19;;;3.20;64.16
58471;BME280;44258;51.288;12.068;2023-02-02T05:29:30;100459.75;;;3.03;64.85
58471;BME280;44258;51.288;12.068;2023-02-02T05:31:56;100448.91;;;3.14;64.57
58471;BME280;44258;51.288;12.068;2023-02-02T05:34:23;100450.22;;;2.95;64.85
58471;BME280;44258;51.288;12.068;2023-02-02T05:36:51;100454.69;;;2.92;65.44
58471;BME280;44258;51.288;12.068;2023-02-02T05:39:18;100457.31;;;3.31;64.08
58471;BME280;44258;51.288;12.068;2023-02-02T05:41:44;100467.22;;;3.26;63.93
58471;BME280;44258;51.288;12.068;2023-02-02T05:44:12;100455.13;;;3.13;64.32
58471;BME280;44258;51.288;12.068;2023-02-02T05:46:38;100461.94;;;3.25;64.31
58471;BME280;44258;51.288;12.068;2023-02-02T05:49:05;100477.47;;;3.42;63.14
58471;BME280;44258;51.288;12.068;2023-02-02T05:51:33;100481.41;;;3.25;63.77
58471;BME280;44258;51.288;12.068;2023-02-02T05:54:04;100481.28;;;3.30;63.76
58471;BME280;44258;51.288;12.068;2023-02-02T05:56:31;100490.75;;;3.04;64.22
58471;BME280;44258;51.288;12.068;2023-02-02T05:58:58;100513.81;;;3.02;64.01
58471;BME280;44258;51.288;12.068;2023-02-02T06:01:24;100508.06;;;3.22;63.99
58471;BME280;44258;51.288;12.068;2023-02-02T06:03:51;100501.78;;;3.25;63.42
58471;BME280;44258;51.288;12.068;2023-02-02T06:06:17;100506.38;;;3.18;64.12
58471;BME280;44258;51.288;12.068;2023-02-02T06:08:44;100504.69;;;3.14;64.31
58471;BME280;44258;51.288;12.068;2023-02-02T06:11:14;100507.22;;;3.20;64.21
58471;BME280;44258;51.288;12.068;2023-02-02T06:13:41;100503.59;;;3.23;64.55
58471;BME280;44258;51.288;12.068;2023-02-02T06:16:08;100506.16;;;3.27;64.55
58471;BME280;44258;51.288;12.068;2023-02-02T06:18:35;100505.06;;;3.36;64.17
58471;BME280;44258;51.288;12.068;2023-02-02T06:21:04;100515.78;;;3.33;64.33
58471;BME280;44258;51.288;12.068;2023-02-02T06:23:31;100513.03;;;3.36;64.42
58471;BME280;44258;51.288;12.068;2023-02-02T06:25:58;100528.81;;;3.45;64.53
58471;BME280;44258;51.288;12.068;2023-02-02T06:28:29;100530.16;;;3.24;64.76
58471;BME280;44258;51.288;12.068;2023-02-02T06:30:55;100538.75;;;3.36;64.64
58471;BME280;44258;51.288;12.068;2023-02-02T06:33:21;100521.97;;;3.32;64.52
58471;BME280;44258;51.288;12.068;2023-02-02T06:35:48;100532.59;;;3.33;65.01
58471;BME280;44258;51.288;12.068;2023-02-02T06:38:14;100540.50;;;3.37;64.84
58471;BME280;44258;51.288;12.068;2023-02-02T06:40:41;100528.59;;;3.55;64.03
58471;BME280;44258;51.288;12.068;2023-02-02T06:43:07;100536.78;;;3.44;64.34
58471;BME280;44258;51.288;12.068;2023-02-02T06:45:37;100538.53;;;3.46;64.20
58471;BME280;44258;51.288;12.068;2023-02-02T06:48:07;100541.66;;;3.64;63.94
58471;BME280;44258;51.288;12.068;2023-02-02T06:50:35;100552.59;;;3.51;64.43
58471;BME280;44258;51.288;12.068;2023-02-02T06:53:02;100549.38;;;3.75;63.36
58471;BME280;44258;51.288;12.068;2023-02-02T06:55:28;100546.13;;;3.62;63.87
58471;BME280;44258;51.288;12.068;2023-02-02T06:57:55;100554.81;;;3.70;64.03
58471;BME280;44258;51.288;12.068;2023-02-02T07:00:23;100560.13;;;3.70;63.80
58471;BME280;44258;51.288;12.068;2023-02-02T07:02:51;100552.28;;;3.64;63.91
58471;BME280;44258;51.288;12.068;2023-02-02T07:05:18;100563.47;;;3.78;63.86
58471;BME280;44258;51.288;12.068;2023-02-02T07:07:45;100565.97;;;3.84;63.78
58471;BME280;44258;51.288;12.068;2023-02-02T07:10:13;100562.47;;;3.82;63.77
58471;BME280;44258;51.288;12.068;2023-02-02T07:12:39;100563.63;;;3.72;63.90
58471;BME280;44258;51.288;12.068;2023-02-02T07:15:07;100566.09;;;3.80;63.88
58471;BME280;44258;51.288;12.068;2023-02-02T07:17:34;100576.91;;;3.72;64.09
58471;BME280;44258;51.288;12.068;2023-02-02T07:20:02;100580.38;;;3.76;64.24
58471;BME280;44258;51.288;12.068;2023-02-02T07:22:29;100577.59;;;3.80;64.27
58471;BME280;44258;51.288;12.068;2023-02-02T07:24:55;100579.59;;;3.70;64.59
58471;BME280;44258;51.288;12.068;2023-02-02T07:27:21;100579.88;;;3.60;64.98
58471;BME280;44258;51.288;12.068;2023-02-02T07:29:48;100585.00;;;3.67;64.85
58471;BME280;44258;51.288;12.068;2023-02-02T07:32:14;100582.78;;;3.86;64.31
58471;BME280;44258;51.288;12.068;2023-02-02T07:34:44;100591.03;;;3.76;64.81
58471;BME280;44258;51.288;12.068;2023-02-02T07:37:12;100594.69;;;4.07;63.74
58471;BME280;44258;51.288;12.068;2023-02-02T07:39:38;100593.75;;;4.08;63.90
58471;BME280;44258;51.288;12.068;2023-02-02T07:42:09;100591.03;;;4.11;63.67
58471;BME280;44258;51.288;12.068;2023-02-02T07:44:36;100596.38;;;4.11;63.48
58471;BME280;44258;51.288;12.068;2023-02-02T07:47:02;100591.13;;;4.07;64.05
58471;BME280;44258;51.288;12.068;2023-02-02T07:49:29;100591.13;;;4.07;64.22
58471;BME280;44258;51.288;12.068;2023-02-02T07:51:56;100595.31;;;4.17;63.83
58471;BME280;44258;51.288;12.068;2023-02-02T07:54:24;100608.38;;;4.28;63.53
58471;BME280;44258;51.288;12.068;2023-02-02T07:56:50;100602.31;;;4.21;63.68
58471;BME280;44258;51.288;12.068;2023-02-02T07:59:17;100607.91;;;4.45;63.03
58471;BME280;44258;51.288;12.068;2023-02-02T08:01:44;100613.91;;;4.53;62.81
58471;BME280;44258;51.288;12.068;2023-02-02T08:04:10;100616.41;;;4.59;62.65
58471;BME280;44258;51.288;12.068;2023-02-02T08:06:38;100609.06;;;4.35;63.48
58471;BME280;44258;51.288;12.068;2023-02-02T08:09:06;100616.44;;;4.58;62.98
58471;BME280;44258;51.288;12.068;2023-02-02T08:11:35;100625.78;;;4.40;63.54
58471;BME280;44258;51.288;12.068;2023-02-02T08:14:03;100617.09;;;4.33;63.94
58471;BME280;44258;51.288;12.068;2023-02-02T08:16:33;100632.84;;;4.42;63.66
58471;BME280;44258;51.288;12.068;2023-02-02T08:18:59;100633.84;;;4.38;63.52
58471;BME280;44258;51.288;12.068;2023-02-02T08:21:26;100649.00;;;4.35;63.84
58471;BME280;44258;51.288;12.068;2023-02-02T08:23:52;100648.66;;;4.48;63.62
58471;BME280;44258;51.288;12.068;2023-02-02T08:26:20;100653.38;;;4.37;64.31
58471;BME280;44258;51.288;12.068;2023-02-02T08:28:51;100648.00;;;4.39;64.31
58471;BME280;44258;51.288;12.068;2023-02-02T08:31:20;100663.50;;;4.57;63.35
58471;BME280;44258;51.288;12.068;2023-02-02T08:33:46;100645.31;;;4.40;64.03
58471;BME280;44258;51.288;12.068;2023-02-02T08:36:14;100651.41;;;4.44;64.31
58471;BME280;44258;51.288;12.068;2023-02-02T08:38:41;100651.81;;;4.28;64.48
58471;BME280;44258;51.288;12.068;2023-02-02T08:41:09;100652.81;;;4.24;64.54
58471;BME280;44258;51.288;12.068;2023-02-02T08:43:37;100662.28;;;4.36;64.51
58471;BME280;44258;51.288;12.068;2023-02-02T08:46:07;100655.22;;;4.33;64.56
58471;BME280;44258;51.288;12.068;2023-02-02T08:48:34;100664.63;;;4.48;64.15
58471;BME280;44258;51.288;12.068;2023-02-02T08:51:02;100655.56;;;4.56;63.90
58471;BME280;44258;51.288;12.068;2023-02-02T08:53:29;100660.91;;;4.54;63.59
58471;BME280;44258;51.288;12.068;2023-02-02T08:56:00;100663.50;;;4.57;63.62
58471;BME280;44258;51.288;12.068;2023-02-02T08:58:26;100666.84;;;4.65;63.46
58471;BME280;44258;51.288;12.068;2023-02-02T09:00:53;100663.63;;;4.87;62.83
58471;BME280;44258;51.288;12.068;2023-02-02T09:03:21;100662.97;;;4.79;62.94
58471;BME280;44258;51.288;12.068;2023-02-02T09:05:47;100667.00;;;4.93;62.52
58471;BME280;44258;51.288;12.068;2023-02-02T09:08:14;100672.16;;;5.00;62.78
58471;BME280;44258;51.288;12.068;2023-02-02T09:10:40;100667.63;;;5.03;62.53
58471;BME280;44258;51.288;12.068;2023-02-02T09:13:07;100671.78;;;5.13;62.34
58471;BME280;44258;51.288;12.068;2023-02-02T09:15:33;100675.75;;;5.30;61.60
58471;BME280;44258;51.288;12.068;2023-02-02T09:18:03;100673.78;;;5.05;62.32
58471;BME280;44258;51.288;12.068;2023-02-02T09:20:32;100679.50;;;5.23;61.54
58471;BME280;44258;51.288;12.068;2023-02-02T09:22:58;100691.16;;;5.19;61.29
58471;BME280;44258;51.288;12.068;2023-02-02T09:25:25;100693.13;;;5.12;61.17
58471;BME280;44258;51.288;12.068;2023-02-02T09:27:51;100683.50;;;5.06;61.75
58471;BME280;44258;51.288;12.068;2023-02-02T09:30:18;100687.28;;;4.99;61.68
58471;BME280;44258;51.288;12.068;2023-02-02T09:32:47;100694.31;;;5.02;61.73
58471;BME280;44258;51.288;12.068;2023-02-02T09:35:14;100693.03;;;5.15;60.77
58471;BME280;44258;51.288;12.068;2023-02-02T09:37:41;100705.09;;;4.97;61.59
58471;BME280;44258;51.288;12.068;2023-02-02T09:40:13;100704.34;;;5.23;61.23
58471;BME280;44258;51.288;12.068;2023-02-02T09:42:54;100707.09;;;5.22;60.83
58471;BME280;44258;51.288;12.068;2023-02-02T09:45:25;100705.25;;;5.24;60.79
58471;BME280;44258;51.288;12.068;2023-02-02T09:47:58;100719.78;;;5.12;60.78
58471;BME280;44258;51.288;12.068;2023-02-02T09:50:46;100725.09;;;5.13;61.24
58471;BME280;44258;51.288;12.068;2023-02-02T09:53:21;100726.19;;;5.38;60.86
58471;BME280;44258;51.288;12.068;2023-02-02T09:55:52;100713.72;;;5.68;60.25
58471;BME280;44258;51.288;12.068;2023-02-02T09:58:23;100723.47;;;5.39;60.61
58471;BME280;44258;51.288;12.068;2023-02-02T10:00:55;100715.34;;;5.44;60.87
58471;BME280;44258;51.288;12.068;2023-02-02T10:03:30;100721.72;;;5.38;60.81
58471;BME280;44258;51.288;12.068;2023-02-02T10:06:02;100728.97;;;5.00;62.20
58471;BME280;44258;51.288;12.068;2023-02-02T10:08:37;100730.91;;;5.28;61.53
58471;BME280;44258;51.288;12.068;2023-02-02T10:11:20;100721.97;;;5.29;61.24
58471;BME280;44258;51.288;12.068;2023-02-02T10:13:51;100740.78;;;5.24;61.20
58471;BME280;44258;51.288;12.068;2023-02-02T10:16:21;100732.09;;;5.49;60.97
58471;BME280;44258;51.288;12.068;2023-02-02T10:18:52;100734.59;;;5.53;60.77
58471;BME280;44258;51.288;12.068;2023-02-02T10:21:26;100735.56;;;5.51;60.99
58471;BME280;44258;51.288;12.068;2023-02-02T10:23:57;100735.00;;;5.71;60.80
58471;BME280;44258;51.288;12.068;2023-02-02T10:26:28;100739.66;;;5.64;61.00
58471;BME280;44258;51.288;12.068;2023-02-02T10:29:07;100734.06;;;5.72;60.21
58471;BME280;44258;51.288;12.068;2023-02-02T10:31:41;100732.97;;;5.79;60.34
58471;BME280;44258;51.288;12.068;2023-02-02T10:34:14;100733.50;;;5.92;60.12
58471;BME280;44258;51.288;12.068;2023-02-02T10:36:54;100738.13;;;5.85;60.64
58471;BME280;44258;51.288;12.068;2023-02-02T10:39:33;100744.16;;;5.93;60.46
58471;BME280;44258;51.288;12.068;2023-02-02T10:42:10;100746.00;;;5.91;60.45
58471;BME280;44258;51.288;12.068;2023-02-02T10:44:46;100750.28;;;5.97;60.16
58471;BME280;44258;51.288;12.068;2023-02-02T10:47:20;100741.19;;;6.03;60.56
58471;BME280;44258;51.288;12.068;2023-02-02T10:49:54;100751.97;;;6.00;60.33
58471;BME280;44258;51.288;12.068;2023-02-02T10:52:30;100744.03;;;5.97;60.40
58471;BME280;44258;51.288;12.068;2023-02-02T10:55:05;100744.44;;;5.51;61.58
58471;BME280;44258;51.288;12.068;2023-02-02T10:57:48;100752.31;;;5.87;60.79
58471;BME280;44258;51.288;12.068;2023-02-02T11:00:22;100756.97;;;5.81;60.93
58471;BME280;44258;51.288;12.068;2023-02-02T11:02:51;100757.88;;;5.80;60.75
58471;BME280;44258;51.288;12.068;2023-02-02T11:05:22;100762.84;;;5.93;60.30
58471;BME280;44258;51.288;12.068;2023-02-02T11:08:11;100766.56;;;5.86;60.60
58471;BME280;44258;51.288;12.068;2023-02-02T11:10:41;100767.19;;;5.96;60.55
58471;BME280;44258;51.288;12.068;2023-02-02T11:13:16;100771.31;;;5.77;60.98
58471;BME280;44258;51.288;12.068;2023-02-02T11:15:44;100773.72;;;5.84;60.70
58471;BME280;44258;51.288;12.068;2023-02-02T11:18:27;100777.84;;;5.66;61.44
58471;BME280;44258;51.288;12.068;2023-02-02T11:20:54;100785.84;;;5.66;61.51
58471;BME280;44258;51.288;12.068;2023-02-02T11:23:22;100777.66;;;5.72;60.76
58471;BME280;44258;51.288;12.068;2023-02-02T11:26:00;100778.09;;;5.57;60.77
58471;BME280;44258;51.288;12.068;2023-02-02T11:28:33;100793.53;;;5.77;60.02
58471;BME280;44258;51.288;12.068;2023-02-02T11:31:03;100778.06;;;5.88;60.29
58471;BME280;44258;51.288;12.068;2023-02-02T11:33:32;100785.69;;;5.71;60.51
58471;BME280;44258;51.288;12.068;2023-02-02T11:36:00;100792.25;;;5.59;61.24
58471;BME280;44258;51.288;12.068;2023-02-02T11:38:27;100789.72;;;5.86;60.58
58471;BME280;44258;51.288;12.068;2023-02-02T11:40:57;100800.16;;;5.95;60.62
58471;BME280;44258;51.288;12.068;2023-02-02T11:43:30;100797.91;;;5.80;60.98
58471;BME280;44258;51.288;12.068;2023-02-02T11:46:00;100807.88;;;5.73;61.55
58471;BME280;44258;51.288;12.068;2023-02-02T11:48:31;100811.53;;;5.69;61.34
58471;BME280;44258;51.288;12.068;2023-02-02T11:50:59;100810.41;;;5.78;61.46
58471;BME280;44258;51.288;12.068;2023-02-02T11:53:28;100816.59;;;5.78;61.56
58471;BME280;44258;51.288;12.068;2023-02-02T11:55:56;100816.22;;;5.93;61.04
58471;BME280;44258;51.288;12.068;2023-02-02T11:58:26;100808.94;;;5.99;60.98
58471;BME280;44258;51.288;12.068;2023-02-02T12:00:59;100813.19;;;6.06;60.87
58471;BME280;44258;51.288;12.068;2023-02-02T12:03:37;100816.19;;;5.95;61.12
58471;BME280;44258;51.288;12.068;2023-02-02T12:06:18;100813.53;;;5.93;61.71
58471;BME280;44258;51.288;12.068;2023-02-02T12:08:46;100811.16;;;6.14;61.62
58471;BME280;44258;51.288;12.068;2023-02-02T12:11:25;100812.47;;;6.29;61.10
58471;BME280;44258;51.288;12.068;2023-02-02T12:14:03;100808.72;;;6.36;60.85
58471;BME280;44258;51.288;12.068;2023-02-02T12:16:50;100815.03;;;6.33;60.66
58471;BME280;44258;51.288;12.068;2023-02-02T12:19:33;100808.06;;;6.28;60.79
58471;BME280;44258;51.288;12.068;2023-02-02T12:22:11;100803.81;;;6.21;61.11
58471;BME280;44258;51.288;12.068;2023-02-02T12:24:49;100808.78;;;6.05;61.77
58471;BME280;44258;51.288;12.068;2023-02-02T12:27:26;100814.38;;;5.96;62.27
58471;BME280;44258;51.288;12.068;2023-02-02T12:30:12;100821.22;;;5.73;62.95
58471;BME280;44258;51.288;12.068;2023-02-02T12:32:53;100822.78;;;5.80;64.08
58471;BME280;44258;51.288;12.068;2023-02-02T12:38:29;100838.91;;;5.44;64.85
58471;BME280;44258;51.288;12.068;2023-02-02T12:41:16;100832.00;;;5.36;64.70
58471;BME280;44258;51.288;12.068;2023-02-02T12:43:50;100835.03;;;5.56;63.89
58471;BME280;44258;51.288;12.068;2023-02-02T12:46:31;100830.94;;;5.43;64.62
58471;BME280;44258;51.288;12.068;2023-02-02T12:49:29;100826.41;;;5.78;64.24
58471;BME280;44258;51.288;12.068;2023-02-02T12:52:18;100830.28;;;5.99;62.97
58471;BME280;44258;51.288;12.068;2023-02-02T12:54:58;100835.41;;;6.06;62.07
58471;BME280;44258;51.288;12.068;2023-02-02T12:57:37;100830.69;;;5.85;62.46
58471;BME280;44258;51.288;12.068;2023-02-02T13:00:28;100832.41;;;5.86;62.19
58471;BME280;44258;51.288;12.068;2023-02-02T13:03:13;100841.41;;;5.82;61.88
58471;BME280;44258;51.288;12.068;2023-02-02T13:05:55;100847.56;;;5.85;61.13
58471;BME280;44258;51.288;12.068;2023-02-02T13:08:27;100846.56;;;5.89;61.59
58471;BME280;44258;51.288;12.068;2023-02-02T13:11:01;100853.22;;;6.06;61.26
58471;BME280;44258;51.288;12.068;2023-02-02T13:13:32;100855.94;;;6.04;61.27